Colton, Oregon
Current Conditions -  °F | °C
As of 10:53 PM on Friday 24 Oct 2014 (Local Time) from KUAO Reporting Station
Clear Clear  
Wind Chill: 51°   Ceiling: Unl
Heat Index: 51°   Visibility: 10mi
Dew Point: 49°   Wind: 0mph
Humidity: 92%   Direction: NA
Pressure: 29.68"   Gusts: NA
Location:  45.17°N, 122.44°W
Report Text: KUAO 250553Z AUTO 00000KT 10SM CLR 11/09 A2968 RMK AO2 SLP052 60005 T01060094 10117 20100 58024
Loading
Personal Weather Stations






























Interactive Weather Map
Tropical Storm Tracking
New forecast layout! Learn more

10-Day Weather Forecast

Advertisements
Track Severe Weather on mobile